createdAt,value
2018-01-26T00:01:20.678Z,99934.26
2018-01-26T00:03:49.087Z,99926.77
2018-01-26T00:06:17.298Z,99933.62
2018-01-26T00:08:45.462Z,99937.77
2018-01-26T00:11:12.938Z,99930.69
2018-01-26T00:13:40.682Z,99932.20
2018-01-26T00:16:08.154Z,99934.73
2018-01-26T00:18:35.618Z,99941.54
2018-01-26T00:21:03.367Z,99939.09
2018-01-26T00:23:30.910Z,99937.78
2018-01-26T00:25:58.741Z,99928.82
2018-01-26T00:28:26.215Z,99924.00
2018-01-26T00:30:53.935Z,99927.35
2018-01-26T00:33:21.430Z,99923.14
2018-01-26T00:35:49.368Z,99919.28
2018-01-26T00:40:44.054Z,99925.66
2018-01-26T00:43:11.527Z,99926.95
2018-01-26T00:45:38.984Z,99922.89
2018-01-26T00:48:06.455Z,99932.85
2018-01-26T00:50:33.904Z,99931.41
2018-01-26T00:53:01.375Z,99939.19
2018-01-26T00:55:28.824Z,99933.45
2018-01-26T00:57:56.337Z,99934.19
2018-01-26T01:00:23.788Z,99938.58
2018-01-26T01:02:51.237Z,99935.64
2018-01-26T01:05:18.720Z,99937.16
2018-01-26T01:07:52.132Z,99950.22
2018-01-26T01:10:19.617Z,99947.08
2018-01-26T01:12:47.071Z,99943.03
2018-01-26T01:15:14.539Z,99940.45
2018-01-26T01:17:42.011Z,99936.88
2018-01-26T01:20:09.485Z,99923.35
2018-01-26T01:22:36.940Z,99917.62
2018-01-26T01:25:04.406Z,99915.20
2018-01-26T01:27:31.854Z,99909.23
2018-01-26T01:29:59.315Z,99906.26
2018-01-26T01:32:26.775Z,99912.52
2018-01-26T01:34:54.248Z,99925.67
2018-01-26T01:37:21.726Z,99932.64
2018-01-26T01:39:49.210Z,99923.50
2018-01-26T01:42:16.653Z,99928.12
2018-01-26T01:44:44.114Z,99931.75
2018-01-26T01:47:11.558Z,99923.16
2018-01-26T01:49:39.026Z,99928.12
2018-01-26T01:52:06.487Z,99936.07
2018-01-26T01:54:33.954Z,99936.20
2018-01-26T01:57:01.402Z,99937.77
2018-01-26T01:59:28.867Z,99935.80
2018-01-26T02:01:56.322Z,99940.00
2018-01-26T02:04:23.803Z,99941.66
2018-01-26T02:06:51.251Z,99947.08
2018-01-26T02:09:18.720Z,99944.32
2018-01-26T02:11:46.166Z,99944.28
2018-01-26T02:14:13.634Z,99953.23
2018-01-26T02:16:41.079Z,99951.50
2018-01-26T02:19:08.554Z,99949.80
2018-01-26T02:21:36.015Z,99954.75
2018-01-26T02:24:21.107Z,99946.22
2018-01-26T02:26:48.550Z,99941.55
2018-01-26T02:29:16.063Z,99934.41
2018-01-26T02:31:43.515Z,99944.11
2018-01-26T02:34:10.972Z,99926.67
2018-01-26T02:36:38.440Z,99931.89
2018-01-26T02:39:05.895Z,99926.16
2018-01-26T02:41:33.367Z,99924.80
2018-01-26T02:44:00.812Z,99925.91
2018-01-26T02:46:28.283Z,99928.78
2018-01-26T02:48:55.730Z,99928.26
2018-01-26T02:51:23.200Z,99932.64
2018-01-26T02:53:50.666Z,99935.27
2018-01-26T02:56:18.151Z,99939.17
2018-01-26T02:58:45.594Z,99945.45
2018-01-26T03:01:13.063Z,99947.56
2018-01-26T03:03:40.515Z,99947.42
2018-01-26T03:06:07.986Z,99944.49
2018-01-26T03:08:35.434Z,99948.19
2018-01-26T03:11:02.902Z,99949.25
2018-01-26T03:13:30.350Z,99948.70
2018-01-26T03:15:57.821Z,99938.83
2018-01-26T03:18:25.351Z,99937.86
2018-01-26T03:20:52.827Z,99948.14
2018-01-26T03:23:20.287Z,99951.02
2018-01-26T03:25:47.763Z,99953.84
2018-01-26T03:28:15.210Z,99952.32
2018-01-26T03:30:42.718Z,99951.67
2018-01-26T03:33:10.169Z,99961.68
2018-01-26T03:35:37.641Z,99953.67
2018-01-26T03:38:05.087Z,99959.78
2018-01-26T03:40:32.562Z,99973.82
2018-01-26T03:43:00.012Z,99978.67
2018-01-26T03:45:27.462Z,99979.98
2018-01-26T03:47:54.926Z,99987.16
2018-01-26T03:50:22.375Z,99987.48
2018-01-26T03:52:49.870Z,99989.07
2018-01-26T03:55:17.326Z,100000.24
2018-01-26T03:57:44.806Z,100005.86
2018-01-26T04:00:12.255Z,100001.92
2018-01-26T04:02:39.730Z,100002.44
2018-01-26T04:05:07.186Z,100006.95
2018-01-26T04:07:34.666Z,100009.75
2018-01-26T04:10:02.126Z,100009.50
2018-01-26T04:12:29.602Z,100006.91
2018-01-26T04:14:57.067Z,100001.58
2018-01-26T04:17:24.543Z,100001.17
2018-01-26T04:19:52.009Z,100004.48
2018-01-26T04:22:19.482Z,100003.61
2018-01-26T04:24:46.939Z,100006.81
2018-01-26T04:27:14.418Z,100006.99
2018-01-26T04:29:41.875Z,100010.92
2018-01-26T04:32:09.362Z,100007.80
2018-01-26T04:34:36.815Z,100016.23
2018-01-26T04:37:04.291Z,100018.06
2018-01-26T04:39:31.751Z,100015.89
2018-01-26T04:41:59.216Z,100021.58
2018-01-26T04:44:26.678Z,100033.09
2018-01-26T04:46:54.154Z,100033.99
2018-01-26T04:49:21.610Z,100025.27
2018-01-26T04:51:49.087Z,100033.02
2018-01-26T04:54:16.543Z,100020.73
2018-01-26T04:56:44.024Z,100034.09
2018-01-26T04:59:11.478Z,100046.43
2018-01-26T05:01:38.946Z,100051.39
2018-01-26T05:04:06.399Z,100055.76
2018-01-26T05:06:33.862Z,100050.38
2018-01-26T05:09:01.385Z,100055.94
2018-01-26T05:11:28.844Z,100046.20
2018-01-26T05:13:56.318Z,100049.72
2018-01-26T05:16:23.769Z,100045.17
2018-01-26T05:18:51.247Z,100048.61
2018-01-26T05:21:18.702Z,100044.59
2018-01-26T05:23:46.170Z,100041.90
2018-01-26T05:26:13.630Z,100036.23
2018-01-26T05:28:41.110Z,100037.60
2018-01-26T05:31:08.566Z,100039.51
2018-01-26T05:33:36.051Z,100036.32
2018-01-26T05:36:03.523Z,100048.66
2018-01-26T05:38:30.995Z,100056.17
2018-01-26T05:40:58.458Z,100059.72
2018-01-26T05:43:25.930Z,100064.32
2018-01-26T05:45:53.399Z,100060.84
2018-01-26T05:48:20.907Z,100060.06
2018-01-26T05:50:48.367Z,100066.00
2018-01-26T05:53:15.843Z,100068.45
2018-01-26T05:55:43.298Z,100071.55
2018-01-26T05:58:10.778Z,100071.09
2018-01-26T06:00:38.239Z,100072.72
2018-01-26T06:03:05.718Z,100074.66
2018-01-26T06:05:33.271Z,100081.33
2018-01-26T06:08:00.755Z,100089.00
2018-01-26T06:10:28.216Z,100092.19
2018-01-26T06:12:55.691Z,100084.66
2018-01-26T06:15:23.155Z,100075.07
2018-01-26T06:17:50.703Z,100071.94
2018-01-26T06:20:18.167Z,100079.30
2018-01-26T06:22:45.643Z,100083.86
2018-01-26T06:25:13.099Z,100094.34
2018-01-26T06:27:40.554Z,100103.19
2018-01-26T06:30:08.032Z,100108.55
2018-01-26T06:32:35.495Z,100103.54
2018-01-26T06:35:02.976Z,100100.93
2018-01-26T06:40:04.279Z,100102.20
2018-01-26T06:42:31.739Z,100105.27
2018-01-26T06:44:59.219Z,100114.81
2018-01-26T06:47:26.675Z,100121.47
2018-01-26T06:49:54.379Z,100127.53
2018-01-26T06:52:21.835Z,100127.91
2018-01-26T06:54:49.321Z,100137.51
2018-01-26T06:57:16.794Z,100138.02
2018-01-26T06:59:44.276Z,100143.07
2018-01-26T07:02:11.722Z,100149.27
2018-01-26T07:04:39.203Z,100160.21
2018-01-26T07:07:06.661Z,100164.61
2018-01-26T07:09:34.143Z,100172.36
2018-01-26T07:12:01.608Z,100177.13
2018-01-26T07:14:29.098Z,100169.46
2018-01-26T07:16:56.563Z,100176.98
2018-01-26T07:19:24.085Z,100177.98
2018-01-26T07:21:51.526Z,100175.78
2018-01-26T07:24:19.020Z,100181.50
2018-01-26T07:26:46.487Z,100180.34
2018-01-26T07:29:13.967Z,100178.19
2018-01-26T07:31:44.439Z,100188.03
2018-01-26T07:34:11.941Z,100195.48
2018-01-26T07:36:39.441Z,100201.38
2018-01-26T07:39:06.894Z,100198.78
2018-01-26T07:41:34.355Z,100202.83
2018-01-26T07:44:01.851Z,100202.44
2018-01-26T07:46:29.310Z,100205.55
2018-01-26T07:48:56.811Z,100203.25
2018-01-26T07:51:24.281Z,100208.06
2018-01-26T07:53:51.767Z,100202.98
2018-01-26T07:56:19.227Z,100214.36
2018-01-26T07:58:46.691Z,100220.79
2018-01-26T08:01:14.174Z,100218.23
2018-01-26T08:03:41.635Z,100224.19
2018-01-26T08:06:09.110Z,100220.93
2018-01-26T08:08:36.590Z,100222.91
2018-01-26T08:11:04.067Z,100220.40
2018-01-26T08:13:31.527Z,100214.59
2018-01-26T08:15:59.001Z,100215.84
2018-01-26T08:18:26.450Z,100213.45
2018-01-26T08:20:53.928Z,100215.02
2018-01-26T08:23:21.382Z,100229.16
2018-01-26T08:25:48.863Z,100230.23
2018-01-26T08:28:16.322Z,100219.48
2018-01-26T08:30:43.794Z,100223.41
2018-01-26T08:33:11.255Z,100218.37
2018-01-26T08:35:38.867Z,100208.20
2018-01-26T08:38:06.336Z,100207.33
2018-01-26T08:40:33.819Z,100208.77
2018-01-26T08:43:01.279Z,100211.94
2018-01-26T08:45:28.778Z,100216.50
2018-01-26T08:47:56.256Z,100224.47
2018-01-26T08:50:23.738Z,100228.78
2018-01-26T08:52:51.191Z,100234.54
2018-01-26T08:55:19.585Z,100239.47
2018-01-26T08:57:47.043Z,100240.03
2018-01-26T09:00:14.528Z,100242.28
2018-01-26T09:02:41.982Z,100247.09
2018-01-26T09:05:09.510Z,100250.47
2018-01-26T09:07:36.958Z,100259.12
2018-01-26T09:10:04.430Z,100265.56
2018-01-26T09:12:31.887Z,100276.01
2018-01-26T09:14:59.363Z,100279.50
2018-01-26T09:17:26.819Z,100280.50
2018-01-26T09:19:54.270Z,100284.83
2018-01-26T09:22:21.746Z,100285.28
2018-01-26T09:24:49.212Z,100286.05
2018-01-26T09:27:16.695Z,100288.39
2018-01-26T09:29:44.165Z,100298.88
2018-01-26T09:32:11.648Z,100303.36
2018-01-26T09:34:39.131Z,100308.77
2018-01-26T09:37:06.633Z,100317.64
2018-01-26T09:39:34.083Z,100320.67
2018-01-26T09:42:01.562Z,100311.78
2018-01-26T09:44:29.011Z,100313.88
2018-01-26T09:46:56.499Z,100325.56
2018-01-26T09:49:23.960Z,100325.06
2018-01-26T09:51:51.439Z,100318.47
2018-01-26T09:54:18.902Z,100326.64
2018-01-26T09:56:46.383Z,100317.22
2018-01-26T09:59:13.842Z,100324.67
2018-01-26T10:01:41.320Z,100327.58
2018-01-26T10:04:08.781Z,100329.07
2018-01-26T10:06:36.267Z,100327.98
2018-01-26T10:09:03.727Z,100332.36
2018-01-26T10:11:31.205Z,100326.80
2018-01-26T10:13:58.662Z,100327.39
2018-01-26T10:16:26.169Z,100327.52
2018-01-26T10:18:53.630Z,100337.48
2018-01-26T10:21:21.115Z,100341.11
2018-01-26T10:23:48.582Z,100349.66
2018-01-26T10:26:16.071Z,100356.59
2018-01-26T10:28:43.543Z,100351.16
2018-01-26T10:31:11.015Z,100352.66
2018-01-26T10:33:38.482Z,100357.18
2018-01-26T10:36:05.984Z,100359.64
2018-01-26T10:38:33.455Z,100356.58
2018-01-26T10:41:00.978Z,100362.45
2018-01-26T10:43:28.471Z,100363.48
2018-01-26T10:45:55.958Z,100363.89
2018-01-26T10:48:23.435Z,100365.81
2018-01-26T10:50:50.906Z,100365.36
2018-01-26T10:53:18.395Z,100364.06
2018-01-26T10:55:45.868Z,100362.42
2018-01-26T10:58:13.364Z,100370.22
2018-01-26T11:00:43.630Z,100362.53
2018-01-26T11:03:11.114Z,100375.86
2018-01-26T11:05:38.591Z,100374.88
2018-01-26T11:08:06.115Z,100379.70
2018-01-26T11:10:33.586Z,100387.72
2018-01-26T11:13:01.067Z,100384.25
2018-01-26T11:15:28.560Z,100385.31
2018-01-26T11:17:56.056Z,100390.58
2018-01-26T11:20:23.533Z,100392.63
2018-01-26T11:22:52.039Z,100389.39
2018-01-26T11:25:19.524Z,100386.79
2018-01-26T11:27:47.987Z,100392.26
2018-01-26T11:30:15.478Z,100397.08
2018-01-26T11:32:42.958Z,100400.29
2018-01-26T11:35:10.423Z,100392.30
2018-01-26T11:37:37.899Z,100406.97
2018-01-26T11:40:05.355Z,100408.71
2018-01-26T11:42:32.831Z,100408.14
2018-01-26T11:45:00.278Z,100419.03
2018-01-26T11:47:27.751Z,100421.77
2018-01-26T11:49:55.210Z,100428.41
2018-01-26T11:52:22.690Z,100429.02
2018-01-26T11:54:50.147Z,100417.08
2018-01-26T11:57:17.623Z,100413.48
2018-01-26T11:59:45.138Z,100413.44
2018-01-26T12:02:12.618Z,100412.78
2018-01-26T12:04:40.075Z,100419.78
2018-01-26T12:07:07.554Z,100422.24
2018-01-26T12:09:35.010Z,100421.70
2018-01-26T12:12:02.466Z,100419.36
2018-01-26T12:14:29.938Z,100422.80
2018-01-26T12:16:57.398Z,100421.88
2018-01-26T12:19:24.866Z,100421.61
2018-01-26T12:21:52.319Z,100420.59
2018-01-26T12:24:19.789Z,100425.88
2018-01-26T12:26:47.238Z,100426.01
2018-01-26T12:29:14.754Z,100421.28
2018-01-26T12:31:42.211Z,100424.24
2018-01-26T12:34:09.691Z,100429.90
2018-01-26T12:36:37.154Z,100424.36
2018-01-26T12:39:04.642Z,100425.14
2018-01-26T12:41:32.090Z,100435.67
2018-01-26T12:43:59.559Z,100433.58
2018-01-26T12:46:27.001Z,100433.97
2018-01-26T12:48:54.466Z,100426.63
2018-01-26T12:51:21.914Z,100429.24
2018-01-26T12:53:49.419Z,100427.17
2018-01-26T12:56:16.945Z,100427.88
2018-01-26T12:58:44.422Z,100434.91
2018-01-26T13:01:11.911Z,100433.66
2018-01-26T13:03:39.378Z,100436.28
2018-01-26T13:06:06.834Z,100439.85
2018-01-26T13:08:34.894Z,100439.60
2018-01-26T13:11:02.359Z,100450.16
2018-01-26T13:13:29.828Z,100453.25
2018-01-26T13:15:57.290Z,100456.35
2018-01-26T13:18:24.772Z,100454.27
2018-01-26T13:20:52.236Z,100452.78
2018-01-26T13:23:19.710Z,100455.98
2018-01-26T13:25:47.170Z,100455.95
2018-01-26T13:28:14.652Z,100455.41
2018-01-26T13:30:42.104Z,100457.64
2018-01-26T13:33:09.563Z,100454.88
2018-01-26T13:35:37.182Z,100463.33
2018-01-26T13:38:04.633Z,100461.88
2018-01-26T13:40:32.123Z,100460.91
2018-01-26T13:42:59.583Z,100465.36
2018-01-26T13:45:27.066Z,100470.61
2018-01-26T13:47:54.531Z,100462.44
2018-01-26T13:50:22.007Z,100468.21
2018-01-26T13:52:49.464Z,100478.63
2018-01-26T13:55:16.959Z,100474.58
2018-01-26T13:57:44.419Z,100476.39
2018-01-26T14:00:11.902Z,100485.91
2018-01-26T14:02:39.362Z,100495.55
2018-01-26T14:05:06.834Z,100505.79
2018-01-26T14:07:34.327Z,100506.45
2018-01-26T14:10:01.817Z,100510.12
2018-01-26T14:12:50.203Z,100513.84
2018-01-26T14:15:17.679Z,100518.56
2018-01-26T14:17:45.367Z,100522.49
2018-01-26T14:20:12.879Z,100524.23
2018-01-26T14:22:40.359Z,100529.63
2018-01-26T14:25:08.839Z,100530.52
2018-01-26T14:27:37.187Z,100531.52
2018-01-26T14:30:04.751Z,100529.41
2018-01-26T14:32:32.293Z,100535.51
2018-01-26T14:34:59.844Z,100537.28
2018-01-26T14:37:27.409Z,100537.17
2018-01-26T14:39:55.006Z,100548.94
2018-01-26T14:42:22.647Z,100560.76
2018-01-26T14:44:50.200Z,100556.35
2018-01-26T14:47:18.025Z,100551.63
2018-01-26T14:49:45.623Z,100562.23
2018-01-26T14:52:13.255Z,100559.64
2018-01-26T14:54:40.798Z,100565.13
2018-01-26T14:57:08.335Z,100570.34
2018-01-26T14:59:35.863Z,100573.70
2018-01-26T15:02:03.432Z,100573.28
2018-01-26T15:04:30.935Z,100583.00
2018-01-26T15:06:58.408Z,100582.83
2018-01-26T15:09:25.875Z,100586.23
2018-01-26T15:11:53.379Z,100584.80
2018-01-26T15:14:20.862Z,100597.19
2018-01-26T15:16:48.424Z,100601.13
2018-01-26T15:19:15.891Z,100608.12
2018-01-26T15:21:43.367Z,100607.88
2018-01-26T15:24:10.841Z,100607.46
2018-01-26T15:26:38.319Z,100602.05
2018-01-26T15:29:06.110Z,100600.77
2018-01-26T15:31:33.586Z,100596.51
2018-01-26T15:34:01.053Z,100592.73
2018-01-26T15:36:29.351Z,100581.11
2018-01-26T15:39:03.323Z,100578.38
2018-01-26T15:41:30.804Z,100581.34
2018-01-26T15:43:58.371Z,100586.16
2018-01-26T15:46:25.860Z,100581.19
2018-01-26T15:48:53.330Z,100586.05
2018-01-26T15:51:20.831Z,100586.03
2018-01-26T15:53:48.360Z,100591.37
2018-01-26T15:56:15.919Z,100593.63
2018-01-26T15:58:43.462Z,100603.33
2018-01-26T16:01:11.028Z,100610.09
2018-01-26T16:03:38.545Z,100613.52
2018-01-26T16:06:06.471Z,100619.84
2018-01-26T16:08:33.992Z,100619.09
2018-01-26T16:11:01.570Z,100629.34
2018-01-26T16:13:29.138Z,100636.81
2018-01-26T16:16:04.355Z,100644.59
2018-01-26T16:18:32.024Z,100647.13
2018-01-26T16:21:02.988Z,100655.31
2018-01-26T16:23:30.502Z,100656.34
2018-01-26T16:25:58.097Z,100659.08
2018-01-26T16:28:25.698Z,100662.38
2018-01-26T16:30:53.264Z,100670.15
2018-01-26T16:33:20.810Z,100675.40
2018-01-26T16:35:48.379Z,100681.58
2018-01-26T16:38:15.937Z,100685.05
2018-01-26T16:40:43.520Z,100690.27
2018-01-26T16:43:11.053Z,100695.72
2018-01-26T16:45:38.575Z,100697.13
2018-01-26T16:48:06.142Z,100702.84
2018-01-26T16:50:33.645Z,100709.25
2018-01-26T16:53:01.155Z,100711.54
2018-01-26T16:55:28.620Z,100722.33
2018-01-26T16:57:56.103Z,100724.77
2018-01-26T17:00:23.579Z,100725.42
2018-01-26T17:02:51.078Z,100734.95
2018-01-26T17:05:18.570Z,100735.41
2018-01-26T17:07:46.069Z,100736.56
2018-01-26T17:10:13.554Z,100741.28
2018-01-26T17:12:41.043Z,100736.60
2018-01-26T17:15:08.506Z,100742.14
2018-01-26T17:17:35.986Z,100748.28
2018-01-26T17:20:03.615Z,100752.46
2018-01-26T17:22:31.098Z,100753.89
2018-01-26T17:24:58.567Z,100762.37
2018-01-26T17:27:26.059Z,100761.59
2018-01-26T17:32:27.722Z,100765.14
2018-01-26T17:34:55.207Z,100768.23
2018-01-26T17:37:22.702Z,100772.59
2018-01-26T17:39:50.194Z,100783.28
2018-01-26T17:42:17.690Z,100781.71
2018-01-26T17:44:45.249Z,100776.78
2018-01-26T17:47:12.865Z,100783.67
2018-01-26T17:49:40.413Z,100783.48
2018-01-26T17:52:08.027Z,100784.23
2018-01-26T17:54:35.600Z,100786.19
2018-01-26T17:57:03.119Z,100787.87
2018-01-26T17:59:30.595Z,100796.46
2018-01-26T18:01:58.125Z,100796.34
2018-01-26T18:04:25.597Z,100804.73
2018-01-26T18:06:53.304Z,100811.05
2018-01-26T18:09:20.858Z,100812.30
2018-01-26T18:11:48.384Z,100823.33
2018-01-26T18:14:15.965Z,100824.98
2018-01-26T18:16:43.541Z,100829.52
2018-01-26T18:19:11.114Z,100835.91
2018-01-26T18:21:38.732Z,100846.99
2018-01-26T18:24:06.316Z,100856.22
2018-01-26T18:26:33.914Z,100859.71
2018-01-26T18:29:01.485Z,100864.71
2018-01-26T18:31:33.734Z,100867.67
2018-01-26T18:34:01.372Z,100874.72
2018-01-26T18:36:28.914Z,100870.75
2018-01-26T18:38:56.551Z,100880.94
2018-01-26T18:41:24.057Z,100877.67
2018-01-26T18:43:51.597Z,100882.59
2018-01-26T18:46:19.222Z,100880.59
2018-01-26T18:48:46.816Z,100883.28
2018-01-26T18:51:14.380Z,100888.34
2018-01-26T18:53:41.965Z,100883.11
2018-01-26T18:56:09.566Z,100885.98
2018-01-26T18:58:37.140Z,100881.48
2018-01-26T19:01:04.614Z,100877.77
2018-01-26T19:03:32.223Z,100890.14
2018-01-26T19:05:59.775Z,100899.24
2018-01-26T19:08:27.342Z,100900.91
2018-01-26T19:10:54.944Z,100899.30
2018-01-26T19:13:22.535Z,100908.95
2018-01-26T19:15:50.102Z,100913.33
2018-01-26T19:18:17.699Z,100914.97
2018-01-26T19:20:45.251Z,100923.45
2018-01-26T19:23:12.819Z,100915.39
2018-01-26T19:25:40.371Z,100921.48
2018-01-26T19:28:07.986Z,100929.30
2018-01-26T19:30:35.575Z,100931.22
2018-01-26T19:33:03.221Z,100924.38
2018-01-26T19:35:30.730Z,100934.67
2018-01-26T19:37:59.227Z,100937.98
2018-01-26T19:40:26.849Z,100949.78
2018-01-26T19:42:54.488Z,100949.78
2018-01-26T19:45:22.153Z,100957.63
2018-01-26T19:47:49.824Z,100964.61
2018-01-26T19:50:22.598Z,100969.09
2018-01-26T19:52:50.591Z,100971.02
2018-01-26T19:55:18.200Z,100973.95
2018-01-26T19:57:45.759Z,100973.64
2018-01-26T20:00:14.736Z,100977.56
2018-01-26T20:02:42.568Z,100980.50
2018-01-26T20:05:28.463Z,100981.29
2018-01-26T20:08:00.888Z,100986.19
2018-01-26T20:10:29.363Z,100989.46
2018-01-26T20:13:02.964Z,100997.55
2018-01-26T20:15:30.620Z,101002.36
2018-01-26T20:17:58.110Z,101004.48
2018-01-26T20:20:25.611Z,101008.83
2018-01-26T20:22:53.084Z,101017.83
2018-01-26T20:25:20.566Z,101024.47
2018-01-26T20:27:48.027Z,101025.59
2018-01-26T20:30:15.513Z,101021.64
2018-01-26T20:32:42.979Z,101025.95
2018-01-26T20:35:10.489Z,101032.85
2018-01-26T20:37:37.951Z,101039.47
2018-01-26T20:40:05.428Z,101043.73
2018-01-26T20:42:32.893Z,101046.06
2018-01-26T20:45:00.378Z,101043.63
2018-01-26T20:47:27.844Z,101052.90
2018-01-26T20:49:55.344Z,101048.23
2018-01-26T20:52:22.810Z,101060.57
2018-01-26T20:54:50.274Z,101063.17
2018-01-26T20:57:17.752Z,101062.06
2018-01-26T20:59:45.211Z,101066.84
2018-01-26T21:02:12.691Z,101067.97
2018-01-26T21:04:40.167Z,101072.15
2018-01-26T21:07:07.651Z,101084.39
2018-01-26T21:09:35.148Z,101074.22
2018-01-26T21:12:02.627Z,101087.86
2018-01-26T21:14:30.096Z,101096.12
2018-01-26T21:16:57.579Z,101093.30
2018-01-26T21:19:25.049Z,101097.11
2018-01-26T21:21:52.539Z,101094.36
2018-01-26T21:24:20.938Z,101092.84
2018-01-26T21:26:48.732Z,101090.55
2018-01-26T21:29:16.396Z,101096.95
2018-01-26T21:31:44.399Z,101099.39
2018-01-26T21:34:12.156Z,101099.48
2018-01-26T21:36:39.659Z,101104.97
2018-01-26T21:39:07.131Z,101109.05
2018-01-26T21:41:34.715Z,101109.23
2018-01-26T21:44:02.742Z,101113.42
2018-01-26T21:46:31.292Z,101101.81
2018-01-26T21:48:58.825Z,101096.83
2018-01-26T21:51:26.432Z,101106.09
2018-01-26T21:53:55.140Z,101106.70
2018-01-26T21:56:22.772Z,101111.86
2018-01-26T21:58:50.360Z,101110.63
2018-01-26T22:01:18.138Z,101117.28
2018-01-26T22:03:46.085Z,101122.96
2018-01-26T22:06:19.223Z,101116.81
2018-01-26T22:08:46.836Z,101126.58
2018-01-26T22:11:14.495Z,101126.40
2018-01-26T22:13:42.287Z,101129.98
2018-01-26T22:16:09.925Z,101129.20
2018-01-26T22:18:37.560Z,101137.83
2018-01-26T22:21:05.212Z,101141.86
2018-01-26T22:23:32.712Z,101145.72
2018-01-26T22:26:00.171Z,101150.59
2018-01-26T22:28:27.658Z,101155.54
2018-01-26T22:30:55.110Z,101157.01
2018-01-26T22:33:22.616Z,101160.35
2018-01-26T22:35:50.524Z,101152.78
2018-01-26T22:38:18.211Z,101154.88
2018-01-26T22:40:46.211Z,101157.85
2018-01-26T22:43:13.875Z,101166.08
2018-01-26T22:45:41.509Z,101167.54
2018-01-26T22:48:09.099Z,101174.90
2018-01-26T22:50:36.587Z,101177.95
2018-01-26T22:53:04.563Z,101178.94
2018-01-26T22:55:32.201Z,101183.11
2018-01-26T22:58:00.128Z,101188.05
2018-01-26T23:00:27.602Z,101198.16
2018-01-26T23:03:04.228Z,101202.98
2018-01-26T23:08:04.764Z,101208.00
2018-01-26T23:10:32.244Z,101204.25
2018-01-26T23:12:59.731Z,101212.00
2018-01-26T23:15:27.190Z,101216.84
2018-01-26T23:17:54.672Z,101210.89
2018-01-26T23:20:22.142Z,101209.97
2018-01-26T23:22:49.622Z,101206.17
2018-01-26T23:25:17.110Z,101211.95
2018-01-26T23:27:44.630Z,101212.52
2018-01-26T23:30:12.106Z,101212.16
2018-01-26T23:32:39.587Z,101215.70
2018-01-26T23:35:07.057Z,101223.69
2018-01-26T23:37:34.530Z,101214.34
2018-01-26T23:40:02.001Z,101227.45
2018-01-26T23:42:29.483Z,101230.47
2018-01-26T23:44:56.950Z,101232.83
2018-01-26T23:47:24.443Z,101230.99
2018-01-26T23:49:51.902Z,101231.66
2018-01-26T23:52:19.387Z,101234.28
2018-01-26T23:54:46.878Z,101233.37
2018-01-26T23:57:14.339Z,101240.88
2018-01-26T23:59:41.843Z,101243.56
